Time;durP1;ratioP1;P1;durP2;ratioP2;P2;SDS_P1;SDS_P2;PMS_P1;PMS_P2;Temp;Humidity;BMP_temperature;BMP_pressure;BME280_temperature;BME280_humidity;BME280_pressure;Samples;Min_cycle;Max_cycle;Signal;HPM_P1;HPM_P2
2022/04/16 00:01:04;;;;;;;4.70;1.77;;;;;;;3.78;77.27;101938.54;1732286;82;98815;-61
2022/04/16 00:03:29;;;;;;;4.80;1.80;;;;;;;3.68;76.57;101943.34;1733918;81;25745;-61
2022/04/16 00:05:56;;;;;;;7.70;2.85;;;;;;;3.59;76.83;101940.20;1742717;80;26224;-61
2022/04/16 00:08:25;;;;;;;6.30;2.27;;;;;;;3.53;76.78;101947.67;1734192;81;98440;-61
2022/04/16 00:10:53;;;;;;;10.05;2.12;;;;;;;3.46;76.48;101941.89;1735391;81;27331;-62
2022/04/16 00:13:21;;;;;;;6.75;2.45;;;;;;;3.41;76.57;101944.06;1731537;81;98799;-61
2022/04/16 00:15:55;;;;;;;9.73;2.20;;;;;;;3.35;76.61;101948.88;1736495;81;26223;-61
2022/04/16 00:18:22;;;;;;;5.97;1.90;;;;;;;3.30;76.54;101955.91;1731773;81;26522;-61
2022/04/16 00:20:51;;;;;;;4.87;2.08;;;;;;;3.25;76.45;101960.28;1750469;80;98264;-62
2022/04/16 00:23:21;;;;;;;6.25;2.30;;;;;;;3.21;76.24;101967.77;1752572;80;27448;-60
2022/04/16 00:25:49;;;;;;;3.87;2.08;;;;;;;3.17;76.41;101965.96;1792276;78;98307;-63
2022/04/16 00:28:15;;;;;;;4.40;2.12;;;;;;;3.12;76.16;101967.69;1792283;78;26439;-62
2022/04/16 00:30:43;;;;;;;4.80;1.75;;;;;;;3.09;76.31;101972.96;1791759;79;108213;-61
2022/04/16 00:33:15;;;;;;;4.25;2.30;;;;;;;3.06;76.02;101980.45;1791811;79;25751;-61
2022/04/16 00:35:42;;;;;;;3.67;1.55;;;;;;;3.03;76.19;101984.39;1785122;79;27455;-61
2022/04/16 00:38:11;;;;;;;7.12;1.90;;;;;;;3.02;76.17;101984.38;1754766;80;98399;-61
2022/04/16 00:40:37;;;;;;;4.17;1.92;;;;;;;3.01;75.72;101983.92;1753751;80;26097;-62
2022/04/16 00:43:06;;;;;;;8.65;2.20;;;;;;;2.97;75.95;101979.48;1718727;82;98614;-61
2022/04/16 00:45:32;;;;;;;4.58;2.17;;;;;;;2.94;75.82;101981.22;1734901;81;25907;-60
2022/04/16 00:48:00;;;;;;;4.60;1.82;;;;;;;2.93;75.57;101986.50;1734029;81;27479;-61
2022/04/16 00:50:27;;;;;;;8.78;2.17;;;;;;;2.90;75.47;101986.04;1776354;80;97425;-60
2022/04/16 00:52:54;;;;;;;4.87;1.67;;;;;;;2.87;75.61;101989.09;1779520;79;25760;-61
2022/04/16 00:55:22;;;;;;;12.63;2.42;;;;;;;2.84;75.50;101985.09;1777107;80;98507;-60
2022/04/16 00:57:49;;;;;;;13.00;2.90;;;;;;;2.82;75.61;101981.54;1778642;80;25823;-61
2022/04/16 01:00:18;;;;;;;4.72;2.08;;;;;;;2.78;75.65;101980.62;1780198;80;27420;-61
2022/04/16 01:02:45;;;;;;;5.37;2.12;;;;;;;2.77;75.53;101986.80;1777434;80;98377;-61
2022/04/16 01:05:12;;;;;;;5.37;2.02;;;;;;;2.75;75.70;101985.00;1780652;80;25939;-60
2022/04/16 01:07:56;;;;;;;4.37;2.12;;;;;;;2.74;75.80;101984.55;1777216;79;98712;-61
2022/04/16 01:10:25;;;;;;;5.80;2.27;;;;;;;2.75;75.78;101988.53;1776627;80;25736;-62
2022/04/16 01:12:50;;;;;;;6.95;2.10;;;;;;;2.73;75.90;101983.66;1773709;80;98524;-62
2022/04/16 01:15:17;;;;;;;3.52;1.77;;;;;;;2.74;75.91;101988.08;1774581;79;33538;-60
2022/04/16 01:17:45;;;;;;;5.92;2.02;;;;;;;2.76;75.93;101985.45;1742399;81;25828;-63
2022/04/16 01:20:12;;;;;;;7.15;2.37;;;;;;;2.74;75.98;101982.79;1778530;79;98341;-62
2022/04/16 01:22:39;;;;;;;6.85;2.10;;;;;;;2.74;76.06;101981.47;1778135;80;25727;-62
2022/04/16 01:25:08;;;;;;;8.43;2.17;;;;;;;2.75;76.08;101987.21;1776881;80;97598;-62
2022/04/16 01:27:36;;;;;;;4.50;1.75;;;;;;;2.76;76.18;101985.02;1779728;79;25930;-61
2022/04/16 01:30:04;;;;;;;9.63;2.00;;;;;;;2.76;76.17;101998.25;1775028;79;26587;-61
2022/04/16 01:32:33;;;;;;;4.80;1.80;;;;;;;2.77;76.28;101993.84;1777516;80;98608;-60
2022/04/16 01:35:03;;;;;;;7.92;3.25;;;;;;;2.76;76.26;102001.34;1738581;80;25792;-60
2022/04/16 01:37:33;;;;;;;5.53;1.65;;;;;;;2.73;76.28;102007.48;1774169;79;98380;-61
2022/04/16 01:40:00;;;;;;;10.10;1.62;;;;;;;2.71;76.30;102010.55;1774706;80;25817;-62
2022/04/16 01:42:32;;;;;;;5.60;1.77;;;;;;;2.69;76.32;102010.09;1778829;80;26392;-61
2022/04/16 01:45:02;;;;;;;9.38;1.80;;;;;;;2.65;76.33;102007.84;1738101;81;98805;-60
2022/04/16 01:47:29;;;;;;;5.40;1.75;;;;;;;2.60;76.39;102001.64;1739787;81;26361;-61
2022/04/16 01:49:56;;;;;;;3.77;1.47;;;;;;;2.58;76.40;102006.03;1733358;80;98428;-60
2022/04/16 01:52:25;;;;;;;6.45;1.77;;;;;;;2.53;76.42;102007.74;1735806;80;26464;-60
2022/04/16 01:54:53;;;;;;;2.75;1.67;;;;;;;2.52;76.44;102017.44;1768423;78;98639;-61
2022/04/16 01:57:19;;;;;;;16.42;1.95;;;;;;;2.49;76.46;102022.70;1770047;79;26075;-61
2022/04/16 01:59:49;;;;;;;5.75;2.90;;;;;;;2.46;76.48;102023.09;1771994;79;25750;-61
2022/04/16 02:02:17;;;;;;;4.10;1.70;;;;;;;2.42;76.51;102030.11;1737059;81;98569;-61
2022/04/16 02:04:43;;;;;;;6.90;2.10;;;;;;;2.39;76.48;102025.22;1767956;80;26720;-60
2022/04/16 02:07:11;;;;;;;4.25;1.92;;;;;;;2.35;76.56;102027.38;1763323;79;98584;-60
2022/04/16 02:09:40;;;;;;;5.30;1.82;;;;;;;2.33;76.61;102025.14;1776842;79;26056;-61
2022/04/16 02:12:08;;;;;;;5.70;2.17;;;;;;;2.30;76.61;102027.31;1767614;79;26512;-61
2022/04/16 02:14:36;;;;;;;4.33;1.57;;;;;;;2.26;76.68;102042.26;1768641;78;98378;-61
2022/04/16 02:17:02;;;;;;;10.53;2.10;;;;;;;2.24;76.70;102037.81;1776227;78;25781;-61
2022/04/16 02:19:28;;;;;;;7.78;1.87;;;;;;;2.19;76.73;102033.79;1764222;78;98947;-61
2022/04/16 02:21:55;;;;;;;4.53;2.40;;;;;;;2.17;76.78;102038.17;1770099;79;26089;-61
2022/04/16 02:24:21;;;;;;;5.53;2.35;;;;;;;2.15;76.84;102041.23;1773891;79;25744;-61
2022/04/16 02:26:50;;;;;;;12.13;2.50;;;;;;;2.13;76.92;102045.61;1715214;82;98548;-61
2022/04/16 02:29:16;;;;;;;8.58;2.42;;;;;;;2.11;76.99;102044.70;1769491;79;25734;-61
2022/04/16 02:31:46;;;;;;;4.28;2.40;;;;;;;2.11;77.08;102037.20;1763661;79;98304;-62
2022/04/16 02:34:11;;;;;;;4.58;1.70;;;;;;;2.12;77.15;102049.55;1770610;79;26559;-62
2022/04/16 02:36:40;;;;;;;7.00;2.83;;;;;;;2.11;77.20;102053.95;1772924;78;25838;-62
2022/04/16 02:39:12;;;;;;;6.97;2.52;;;;;;;2.09;77.29;102046.44;1768544;79;98688;-62
2022/04/16 02:41:38;;;;;;;5.85;2.87;;;;;;;2.07;77.30;102053.89;1770092;79;25751;-63
2022/04/16 02:44:05;;;;;;;9.55;2.47;;;;;;;2.05;77.36;102051.23;1735036;81;100019;-60
2022/04/16 02:49:20;;;;;;;6.53;2.10;;;;;;;2.00;77.47;102053.35;1773599;79;98659;-61
2022/04/16 02:51:46;;;;;;;9.05;2.10;;;;;;;1.96;77.52;102056.39;1785319;80;29565;-61
2022/04/16 02:54:15;;;;;;;10.90;2.67;;;;;;;1.93;77.58;102066.92;1787820;79;27221;-61
2022/04/16 02:56:42;;;;;;;10.58;2.30;;;;;;;1.90;77.62;102069.52;1780610;78;98540;-60
2022/04/16 02:59:08;;;;;;;5.95;1.95;;;;;;;1.87;77.67;102072.12;1785636;78;26426;-61
2022/04/16 03:01:34;;;;;;;6.42;1.95;;;;;;;1.84;77.74;102077.36;1784341;78;98351;-61
2022/04/16 03:03:59;;;;;;;3.37;1.50;;;;;;;1.81;77.77;102074.23;1784347;78;27421;-60
2022/04/16 03:06:25;;;;;;;4.80;1.95;;;;;;;1.80;77.83;102079.50;1786443;78;33516;-60
2022/04/16 03:08:51;;;;;;;4.35;2.20;;;;;;;1.76;77.89;102074.59;1786325;78;98427;-60
2022/04/16 03:11:17;;;;;;;6.85;1.87;;;;;;;1.74;77.95;102078.08;1786722;79;26130;-60
2022/04/16 03:13:46;;;;;;;7.63;2.00;;;;;;;1.72;77.99;102078.05;1783221;78;100037;-63
2022/04/16 03:18:52;;;;;;;6.00;1.87;;;;;;;1.71;78.21;102081.56;1726852;79;98415;-60
2022/04/16 03:21:22;;;;;;;6.30;2.37;;;;;;;1.72;78.20;102087.30;1786743;79;25930;-61
2022/04/16 03:23:48;;;;;;;6.97;2.12;;;;;;;1.71;78.28;102082.00;1783435;79;26109;-61
2022/04/16 03:26:17;;;;;;;4.65;2.30;;;;;;;1.71;78.33;102089.92;1780939;78;98367;-62
2022/04/16 03:28:44;;;;;;;5.83;2.25;;;;;;;1.68;78.34;102088.13;1779187;79;27350;-61
2022/04/16 03:31:11;;;;;;;4.78;2.02;;;;;;;1.67;78.36;102094.70;1783034;79;98506;-64
2022/04/16 03:33:38;;;;;;;6.00;2.35;;;;;;;1.67;78.57;102099.56;1787184;79;30547;-60
2022/04/16 03:36:05;;;;;;;5.00;1.98;;;;;;;1.67;78.58;102098.67;1787423;79;26665;-61
2022/04/16 03:38:32;;;;;;;9.00;1.67;;;;;;;1.66;78.58;102106.14;1784661;78;98675;-61
2022/04/16 03:40:58;;;;;;;4.35;1.92;;;;;;;1.62;78.78;102098.16;1784624;78;27458;-60
2022/04/16 03:43:29;;;;;;;4.83;2.10;;;;;;;1.63;78.74;102105.66;1785843;79;98628;-60
2022/04/16 03:45:54;;;;;;;4.42;1.82;;;;;;;1.62;78.79;102112.70;1787033;79;25760;-61
2022/04/16 03:48:20;;;;;;;3.60;1.77;;;;;;;1.63;78.85;102114.47;1787185;78;26463;-60
2022/04/16 03:50:46;;;;;;;7.08;2.45;;;;;;;1.63;78.91;102113.16;1789674;79;98352;-61
2022/04/16 03:53:12;;;;;;;5.65;2.25;;;;;;;1.63;78.95;102122.41;1759340;80;27457;-61
2022/04/16 04:01:07;;;;;;;13.45;2.75;;;;;;;1.62;79.09;102131.20;1653464;85;98767;-61
2022/04/16 04:03:34;;;;;;;7.00;2.12;;;;;;;1.62;79.14;102133.84;1705938;81;25987;-63
2022/04/16 04:06:01;;;;;;;7.60;2.50;;;;;;;1.61;79.16;102134.70;1716145;82;29299;-62
2022/04/16 04:08:28;;;;;;;9.60;3.85;;;;;;;1.63;79.26;102145.30;1716345;82;97584;-62
2022/04/16 04:10:55;;;;;;;7.08;2.65;;;;;;;1.63;79.30;102145.30;1754066;80;25740;-60
2022/04/16 04:13:23;;;;;;;7.85;2.58;;;;;;;1.63;79.36;102147.95;1747438;81;98723;-60
2022/04/16 04:15:50;;;;;;;8.30;2.42;;;;;;;1.62;79.38;102145.73;1757057;80;25742;-61
2022/04/16 04:18:16;;;;;;;5.47;1.85;;;;;;;1.61;79.44;102147.91;1703870;81;27549;-62
2022/04/16 04:20:42;;;;;;;8.40;2.30;;;;;;;1.62;79.49;102151.45;1730943;81;98451;-62
2022/04/16 04:23:08;;;;;;;5.25;3.12;;;;;;;1.62;79.51;102161.59;1736418;81;30938;-61
2022/04/16 04:25:34;;;;;;;6.35;2.17;;;;;;;1.64;79.54;102162.94;1750166;80;98445;-61
2022/04/16 04:28:03;;;;;;;5.33;3.17;;;;;;;1.66;79.60;102161.64;1752541;81;27739;-62
2022/04/16 04:30:30;;;;;;;7.90;2.50;;;;;;;1.67;79.64;102162.10;1749607;81;27408;-60
2022/04/16 04:32:58;;;;;;;7.22;2.83;;;;;;;1.68;79.67;102166.09;1745231;81;98514;-62
2022/04/16 04:35:27;;;;;;;10.35;3.05;;;;;;;1.70;79.68;102167.44;1748277;80;28277;-62
2022/04/16 04:37:58;;;;;;;4.20;1.83;;;;;;;1.72;79.73;102165.71;1747314;80;98395;-61
2022/04/16 04:40:24;;;;;;;9.13;2.45;;;;;;;1.74;79.82;102175.87;1746471;81;25803;-62
2022/04/16 04:42:51;;;;;;;7.87;2.10;;;;;;;1.75;79.87;102174.59;1747579;80;97587;-62
2022/04/16 04:45:18;;;;;;;6.87;2.62;;;;;;;1.78;79.94;102184.32;1792040;78;25731;-62
2022/04/16 04:47:44;;;;;;;7.20;2.37;;;;;;;1.80;79.98;102183.92;1794710;78;25799;-61
2022/04/16 04:50:12;;;;;;;4.72;1.87;;;;;;;1.83;79.97;102182.65;1794145;78;98388;-62
2022/04/16 04:52:41;;;;;;;6.25;2.60;;;;;;;1.85;80.06;102187.09;1788884;79;25789;-61
2022/04/16 04:55:11;;;;;;;6.15;2.20;;;;;;;1.87;80.09;102195.05;1788354;78;98415;-62
2022/04/16 04:57:43;;;;;;;3.70;2.30;;;;;;;1.90;80.11;102199.07;1792106;79;25760;-61
2022/04/16 05:00:12;;;;;;;3.45;2.17;;;;;;;1.91;80.11;102199.53;1790922;78;25891;-61
2022/04/16 05:02:46;;;;;;;7.70;2.83;;;;;;;1.96;80.18;102196.53;1791808;78;99099;-60
2022/04/16 05:05:19;;;;;;;6.72;2.42;;;;;;;1.99;80.21;102198.34;1791312;78;25738;-61
2022/04/16 05:07:45;;;;;;;5.17;2.55;;;;;;;2.03;80.24;102209.42;1788508;78;98358;-60
2022/04/16 05:10:12;;;;;;;4.12;1.77;;;;;;;2.07;80.33;102209.93;1755597;80;33670;-61
2022/04/16 05:12:38;;;;;;;5.90;1.90;;;;;;;2.11;80.37;102217.05;1728068;81;25887;-60
2022/04/16 05:15:08;;;;;;;8.60;1.87;;;;;;;2.14;80.43;102215.34;1752210;80;98264;-60
2022/04/16 05:17:37;;;;;;;7.92;2.37;;;;;;;2.17;80.43;102216.72;1746504;81;26100;-61
2022/04/16 05:20:12;;;;;;;6.30;1.60;;;;;;;2.22;80.46;102226.94;1755249;80;98362;-60
2022/04/16 05:22:38;;;;;;;5.47;1.70;;;;;;;2.20;80.46;102221.17;1715344;82;25891;-60
2022/04/16 05:25:08;;;;;;;9.38;2.35;;;;;;;2.30;80.46;102227.49;1745289;80;99013;-61
2022/04/16 05:27:37;;;;;;;5.25;2.47;;;;;;;2.35;80.40;102237.72;1723513;81;26013;-61
2022/04/16 05:30:08;;;;;;;4.20;2.05;;;;;;;2.38;80.37;102238.66;1722598;82;25548;-62
2022/04/16 05:32:45;;;;;;;3.65;2.00;;;;;;;2.41;80.34;102236.05;1757188;80;98148;-60
2022/04/16 05:35:13;;;;;;;5.55;1.65;;;;;;;2.47;80.40;102241.45;1754512;80;25898;-61
2022/04/16 05:37:45;;;;;;;2.98;2.00;;;;;;;2.53;80.39;102248.59;1716593;81;97522;-61
2022/04/16 05:40:14;;;;;;;6.65;2.60;;;;;;;2.58;80.38;102243.82;1711244;81;26902;-60
2022/04/16 05:42:44;;;;;;;4.75;2.42;;;;;;;2.62;80.35;102244.72;1753962;80;25879;-60
2022/04/16 05:45:14;;;;;;;6.15;2.10;;;;;;;2.66;80.32;102251.84;1751186;80;98254;-61
2022/04/16 05:47:42;;;;;;;5.28;2.22;;;;;;;2.70;80.32;102248.37;1754452;80;26744;-61
2022/04/16 05:50:10;;;;;;;5.53;2.77;;;;;;;2.76;80.31;102251.11;1748734;80;98329;-62
2022/04/16 05:52:40;;;;;;;7.45;1.98;;;;;;;2.82;80.33;102251.63;1754926;80;27165;-61
2022/04/16 05:55:09;;;;;;;2.77;1.77;;;;;;;2.90;80.33;102255.27;1753486;80;98506;-62
2022/04/16 05:57:35;;;;;;;10.45;2.35;;;;;;;2.95;80.26;102249.60;1757621;80;29518;-61
2022/04/16 06:00:04;;;;;;;6.97;2.27;;;;;;;3.02;80.20;102255.88;1753096;80;25799;-61
2022/04/16 06:02:33;;;;;;;9.15;2.25;;;;;;;3.08;80.14;102251.98;1752896;80;98460;-61
2022/04/16 06:05:01;;;;;;;3.55;2.10;;;;;;;3.12;80.13;102248.06;1753219;80;26066;-61
2022/04/16 06:07:27;;;;;;;3.02;1.80;;;;;;;3.25;80.20;102250.44;1754421;80;98850;-63
2022/04/16 06:09:55;;;;;;;5.28;2.27;;;;;;;3.25;80.20;102250.44;1757554;80;27442;-61
2022/04/16 06:12:23;;;;;;;6.75;2.20;;;;;;;3.32;79.99;102243.02;1721117;81;25811;-61
2022/04/16 06:14:54;;;;;;;5.58;2.37;;;;;;;3.42;80.03;102253.28;1755611;80;98782;-61
2022/04/16 06:17:20;;;;;;;5.33;2.15;;;;;;;3.51;79.88;102253.39;1708985;82;26391;-61
2022/04/16 06:19:47;;;;;;;4.97;1.97;;;;;;;3.56;79.79;102255.22;1756821;80;98376;-61
2022/04/16 06:22:14;;;;;;;5.22;2.47;;;;;;;3.63;79.72;102255.29;1746652;80;27474;-62
2022/04/16 06:24:42;;;;;;;5.28;2.12;;;;;;;3.71;79.70;102265.55;1739646;82;27251;-60
2022/04/16 06:27:11;;;;;;;4.87;2.40;;;;;;;3.79;79.58;102257.23;1735343;80;97396;-61
2022/04/16 06:29:38;;;;;;;4.37;2.10;;;;;;;3.87;79.59;102263.06;1723892;81;26367;-61
2022/04/16 06:32:08;;;;;;;7.47;2.00;;;;;;;3.94;79.54;102264.02;1723282;80;98493;-61
2022/04/16 06:34:33;;;;;;;5.40;2.47;;;;;;;4.00;79.34;102266.73;1725916;81;27397;-60
2022/04/16 06:36:59;;;;;;;7.72;1.80;;;;;;;4.05;79.31;102274.29;1727444;81;98943;-60
2022/04/16 06:39:26;;;;;;;7.42;3.58;;;;;;;4.08;79.07;102265.47;1709315;82;25748;-62
2022/04/16 06:41:53;;;;;;;5.65;2.17;;;;;;;4.10;78.93;102276.55;1728863;81;28309;-63
2022/04/16 06:44:19;;;;;;;5.15;2.25;;;;;;;4.18;78.61;102264.68;1724319;79;98431;-61
2022/04/16 06:46:46;;;;;;;5.90;2.22;;;;;;;4.28;78.66;102266.53;1726554;81;27484;-63
2022/04/16 06:49:14;;;;;;;2.67;1.80;;;;;;;4.37;78.02;102260.41;1723850;80;97656;-62
2022/04/16 06:51:42;;;;;;;5.20;1.62;;;;;;;4.39;77.82;102263.97;1727134;81;25745;-60
2022/04/16 06:54:09;;;;;;;4.05;1.67;;;;;;;4.46;77.80;102268.45;1723158;81;26014;-60
2022/04/16 06:56:37;;;;;;;2.80;1.47;;;;;;;4.54;77.68;102273.38;1722219;81;98406;-60
2022/04/16 06:59:04;;;;;;;4.72;1.92;;;;;;;4.56;77.29;102274.28;1727107;81;27418;-60
2022/04/16 07:01:33;;;;;;;3.95;1.50;;;;;;;4.63;77.31;102273.45;1721387;80;98535;-63
2022/04/16 07:03:58;;;;;;;15.53;2.08;;;;;;;4.71;77.36;102288.11;1726942;81;25860;-64
2022/04/16 07:06:24;;;;;;;3.40;1.50;;;;;;;4.76;76.85;102284.60;1723026;81;26342;-59
2022/04/16 07:08:50;;;;;;;4.95;1.70;;;;;;;4.77;76.71;102281.06;1727022;81;98657;-60
2022/04/16 07:11:16;;;;;;;2.37;1.65;;;;;;;4.84;76.71;102276.69;1724041;81;25902;-60
2022/04/16 07:13:42;;;;;;;7.37;1.65;;;;;;;4.87;76.59;102286.89;1719367;80;98314;-62
2022/04/16 07:16:10;;;;;;;4.53;1.47;;;;;;;4.91;76.50;102282.92;1722139;81;25835;-60
2022/04/16 07:18:36;;;;;;;3.12;1.57;;;;;;;4.89;76.20;102287.79;1723940;81;26024;-60
2022/04/16 07:21:03;;;;;;;2.75;1.10;;;;;;;4.91;76.01;102288.23;1724862;81;98364;-61
2022/04/16 07:23:30;;;;;;;4.05;1.57;;;;;;;4.93;75.83;102293.12;1724440;81;27526;-61
2022/04/16 07:25:58;;;;;;;4.10;1.45;;;;;;;4.99;75.56;102286.52;1719541;82;98456;-61
2022/04/16 07:28:26;;;;;;;3.08;1.25;;;;;;;5.12;75.32;102285.70;1732360;81;25923;-61
2022/04/16 07:30:53;;;;;;;4.92;1.47;;;;;;;5.27;74.68;102286.19;1722261;82;98968;-62
2022/04/16 07:33:19;;;;;;;4.42;1.47;;;;;;;5.40;74.32;102288.02;1736308;81;25713;-61
2022/04/16 07:35:47;;;;;;;5.25;1.72;;;;;;;5.51;73.77;102285.84;1727654;81;27476;-61
2022/04/16 07:38:15;;;;;;;2.80;1.50;;;;;;;5.60;74.09;102291.64;1750952;80;97448;-61
2022/04/16 07:40:44;;;;;;;9.65;1.52;;;;;;;5.67;73.81;102295.21;1752830;80;25333;-61
2022/04/16 07:43:13;;;;;;;1.40;1.20;;;;;;;5.63;73.24;102304.06;1745276;80;98520;-62
2022/04/16 07:45:39;;;;;;;4.85;1.80;;;;;;;5.55;73.20;102306.26;1714365;82;26619;-63
2022/04/16 07:48:08;;;;;;;4.40;1.50;;;;;;;5.52;73.01;102311.56;1751178;80;27886;-63
2022/04/16 07:50:34;;;;;;;3.25;1.70;;;;;;;5.51;72.99;102315.55;1700788;81;98490;-61
2022/04/16 07:53:00;;;;;;;10.48;1.77;;;;;;;5.49;72.86;102313.32;1741667;80;26450;-60
2022/04/16 07:55:31;;;;;;;4.60;1.65;;;;;;;5.45;72.79;102316.41;1742081;81;98720;-60
2022/04/16 07:58:01;;;;;;;3.22;1.40;;;;;;;5.50;72.87;102321.30;1748488;80;25989;-62
2022/04/16 08:00:29;;;;;;;4.53;1.60;;;;;;;5.51;72.46;102319.09;1750376;80;28171;-62
2022/04/16 08:02:56;;;;;;;7.50;2.00;;;;;;;5.48;72.33;102324.40;1743655;80;98454;-60
2022/04/16 08:05:22;;;;;;;1.72;1.40;;;;;;;5.41;71.98;102314.62;1748860;80;25717;-60
2022/04/16 08:07:49;;;;;;;2.85;1.70;;;;;;;5.41;71.77;102317.72;1742510;81;98599;-60
2022/04/16 08:10:16;;;;;;;2.67;1.57;;;;;;;5.39;71.85;102325.69;1743750;81;25756;-59
2022/04/16 08:12:44;;;;;;;3.22;1.95;;;;;;;5.40;71.89;102326.58;1743577;80;28873;-61
2022/04/16 08:15:10;;;;;;;3.00;1.62;;;;;;;5.45;71.45;102328.37;1734319;80;98312;-61
2022/04/16 08:17:40;;;;;;;4.30;2.12;;;;;;;5.60;71.71;102330.66;1756935;80;25726;-61
2022/04/16 08:20:08;;;;;;;3.98;1.70;;;;;;;5.73;71.73;102317.41;1712854;82;98533;-61
2022/04/16 08:22:38;;;;;;;4.45;1.85;;;;;;;5.90;71.56;102326.80;1710383;81;25774;-60
2022/04/16 08:27:54;;;;;;;3.20;1.47;;;;;;;5.88;69.86;102334.75;1739516;80;26492;-61
2022/04/16 08:30:21;;;;;;;3.22;1.80;;;;;;;5.83;69.95;102338.28;1754037;81;25843;-61
2022/04/16 08:32:48;;;;;;;5.47;1.60;;;;;;;5.79;70.05;102340.48;1748983;81;98520;-61
2022/04/16 08:35:19;;;;;;;2.75;1.90;;;;;;;5.76;69.90;102337.81;1735744;81;26484;-61
2022/04/16 08:37:50;;;;;;;6.40;2.10;;;;;;;5.77;70.00;102342.25;1749777;80;98515;-71
2022/04/16 08:40:18;;;;;;;1.98;1.70;;;;;;;5.76;69.68;102345.34;1752592;80;26371;-71
2022/04/16 08:42:52;;;;;;;3.02;1.57;;;;;;;5.84;69.89;102346.70;1752447;81;26576;-71
2022/04/16 08:45:18;;;;;;;6.58;1.55;;;;;;;5.91;68.97;102340.55;1751193;81;98199;-71
2022/04/16 08:47:49;;;;;;;3.00;1.62;;;;;;;5.87;68.74;102344.94;1753253;81;26441;-72
2022/04/16 08:50:15;;;;;;;5.62;2.10;;;;;;;5.98;68.96;102337.47;1720112;81;98693;-70
2022/04/16 08:52:44;;;;;;;3.90;1.30;;;;;;;6.08;68.72;102332.17;1747771;80;25834;-71
2022/04/16 08:55:12;;;;;;;2.65;1.27;;;;;;;6.17;68.23;102345.94;1727640;81;98627;-70
2022/04/16 08:57:41;;;;;;;3.22;1.52;;;;;;;6.16;67.45;102333.52;1749288;81;26036;-71
2022/04/16 09:00:13;;;;;;;4.20;1.45;;;;;;;6.13;66.87;102341.05;1717530;81;25782;-70
2022/04/16 09:02:37;;;;;;;6.83;2.30;;;;;;;6.11;66.98;102340.61;1750555;80;97553;-72
2022/04/16 09:05:14;;;;;;;4.55;1.12;;;;;;;6.18;67.46;102347.72;1754559;80;26189;-71
2022/04/16 09:07:59;;;;;;;5.25;1.42;;;;;;;6.19;66.39;102343.73;1750932;80;98638;-70
2022/04/16 09:10:28;;;;;;;4.95;1.52;;;;;;;6.15;66.72;102337.95;1730854;81;26111;-70
2022/04/16 09:13:01;;;;;;;2.90;1.65;;;;;;;6.15;66.36;102346.38;1755356;81;26432;-71
2022/04/16 09:15:30;;;;;;;3.72;1.50;;;;;;;6.18;66.23;102339.73;1717621;82;98113;-71
2022/04/16 09:18:07;;;;;;;4.03;1.70;;;;;;;6.22;66.08;102334.86;1733750;82;25754;-70
2022/04/16 09:20:39;;;;;;;2.12;1.42;;;;;;;6.32;66.50;102342.41;1733084;81;99250;-69
2022/04/16 09:23:18;;;;;;;4.33;1.90;;;;;;;6.43;66.18;102330.88;1733990;82;26324;-70
2022/04/16 09:25:48;;;;;;;3.65;1.35;;;;;;;6.61;66.17;102345.98;1716594;82;98484;-70
2022/04/16 09:28:23;;;;;;;1.72;1.30;;;;;;;6.76;66.10;102345.09;1733343;81;27483;-69
2022/04/16 09:30:56;;;;;;;4.45;1.45;;;;;;;6.87;64.83;102339.76;1732913;81;25794;-69
2022/04/16 09:33:22;;;;;;;3.58;1.72;;;;;;;6.95;65.21;102340.64;1729570;81;98262;-69
2022/04/16 09:35:55;;;;;;;2.42;1.67;;;;;;;7.05;65.38;102349.95;1737013;82;26140;-70
2022/04/16 09:38:25;;;;;;;2.30;1.75;;;;;;;7.13;65.32;102336.16;1706900;82;98428;-69
2022/04/16 09:40:51;;;;;;;2.17;1.65;;;;;;;7.24;65.32;102349.47;1757240;80;27409;-69
2022/04/16 09:43:18;;;;;;;3.12;1.37;;;;;;;7.35;64.73;102350.78;1754925;80;98652;-70
2022/04/16 09:45:46;;;;;;;2.87;1.22;;;;;;;7.38;64.52;102349.44;1759757;80;25766;-70
2022/04/16 09:48:15;;;;;;;4.17;1.72;;;;;;;7.43;63.71;102358.31;1759701;80;26525;-70
2022/04/16 09:50:44;;;;;;;4.25;1.77;;;;;;;7.51;63.67;102356.95;1755577;81;98430;-70
2022/04/16 09:53:12;;;;;;;3.58;1.62;;;;;;;7.49;63.23;102354.30;1739220;80;27532;-70
2022/04/16 09:55:41;;;;;;;3.35;1.65;;;;;;;7.42;62.97;102357.88;1729262;81;98557;-70
2022/04/16 09:58:09;;;;;;;4.15;1.67;;;;;;;7.40;63.03;102367.66;1736789;81;25717;-70
2022/04/16 10:00:37;;;;;;;2.00;1.20;;;;;;;7.40;62.84;102369.88;1732356;81;26697;-70
2022/04/16 10:03:08;;;;;;;2.58;1.17;;;;;;;7.37;62.44;102367.67;1731931;81;98397;-70
2022/04/16 10:05:35;;;;;;;4.22;1.85;;;;;;;7.39;62.45;102372.11;1731971;82;27391;-70
2022/04/16 10:08:03;;;;;;;1.65;1.40;;;;;;;7.45;62.17;102376.09;1732373;81;98386;-70
2022/04/16 10:10:42;;;;;;;2.67;1.30;;;;;;;7.44;61.56;102366.31;1735305;82;25885;-71
2022/04/16 10:13:09;;;;;;;3.62;1.67;;;;;;;7.37;60.98;102366.33;1701552;82;26094;-70
2022/04/16 10:16:07;;;;;;;3.62;1.45;;;;;;;7.29;60.81;102370.35;1735284;81;98291;-71
2022/04/16 10:18:35;;;;;;;4.45;1.47;;;;;;;7.24;60.00;102368.59;1682989;83;27520;-70
2022/04/16 10:21:04;;;;;;;4.10;1.60;;;;;;;7.19;59.69;102373.93;1735768;81;98369;-70
2022/04/16 10:23:39;;;;;;;3.15;1.00;;;;;;;7.16;58.59;102369.94;1697918;83;25819;-70
2022/04/16 10:26:11;;;;;;;3.02;1.70;;;;;;;7.21;57.78;102374.81;1733830;81;98371;-72
2022/04/16 10:28:57;;;;;;;2.95;1.30;;;;;;;7.24;58.41;102380.59;1736613;81;25759;-70
2022/04/16 10:31:33;;;;;;;4.00;1.27;;;;;;;7.35;58.56;102365.00;1731525;81;98635;-70
2022/04/16 10:34:13;;;;;;;2.25;1.67;;;;;;;7.52;58.58;102366.73;1735849;81;25858;-71
2022/04/16 10:36:40;;;;;;;3.60;1.90;;;;;;;7.58;58.11;102371.61;1690264;82;25800;-71
2022/04/16 10:39:16;;;;;;;;;;;;;;;7.74;58.08;102364.42;1736694;81;98462;-71
2022/04/16 10:42:02;;;;;;;3.05;1.52;;;;;;;7.78;57.21;102368.41;1693844;83;25793;-71
2022/04/16 10:44:32;;;;;;;4.08;1.12;;;;;;;7.91;58.00;102363.88;1746725;80;98381;-71
2022/04/16 10:47:03;;;;;;;3.92;1.72;;;;;;;7.96;56.31;102361.17;1733641;81;25731;-70
2022/04/16 10:49:31;;;;;;;3.45;1.80;;;;;;;7.97;57.00;102373.19;1733532;81;98624;-69
2022/04/16 10:52:00;;;;;;;2.47;1.37;;;;;;;8.03;56.58;102357.58;1693812;82;26125;-68
2022/04/16 10:54:34;;;;;;;2.70;1.47;;;;;;;8.15;57.17;102364.19;1736877;81;25766;-70
2022/04/16 10:57:06;;;;;;;5.12;2.20;;;;;;;8.39;57.44;102361.39;1734630;81;98322;-70
2022/04/16 10:59:43;;;;;;;6.87;1.82;;;;;;;8.50;56.92;102355.97;1755801;81;25697;-70
2022/04/16 11:02:25;;;;;;;3.70;1.82;;;;;;;8.58;56.75;102360.81;1755620;80;98392;-69
2022/04/16 11:05:03;;;;;;;5.25;1.45;;;;;;;8.64;56.69;102363.44;1757877;80;25978;-70
2022/04/16 11:07:39;;;;;;;4.40;1.45;;;;;;;8.63;56.53;102360.77;1752547;80;98605;-71
2022/04/16 11:10:09;;;;;;;4.35;1.77;;;;;;;8.62;56.32;102353.66;1720943;82;27457;-71
2022/04/16 11:12:47;;;;;;;2.15;1.60;;;;;;;8.64;56.14;102354.53;1749983;80;25371;-71
2022/04/16 11:15:26;;;;;;;3.58;1.40;;;;;;;8.78;55.52;102352.63;1736024;81;98420;-71
2022/04/16 11:17:57;;;;;;;4.33;1.10;;;;;;;8.88;55.80;102356.99;1728108;81;27010;-71
2022/04/16 11:20:26;;;;;;;4.62;1.52;;;;;;;9.00;54.93;102351.98;1748719;80;98337;-71
2022/04/16 11:22:53;;;;;;;3.00;1.30;;;;;;;8.99;54.81;102377.84;1755295;80;27894;-71
2022/04/16 11:25:23;;;;;;;2.85;1.37;;;;;;;8.86;53.47;102356.57;1726239;82;98478;-69
2022/04/16 11:36:12;;;;;;;4.70;1.67;;;;;;;9.86;53.45;102360.81;1758014;81;28679;-69
2022/04/16 11:38:41;;;;;;;4.53;1.30;;;;;;;9.65;52.73;102367.78;1759194;80;98513;-71
2022/04/16 11:41:11;;;;;;;2.33;1.45;;;;;;;9.48;52.73;102379.13;1755578;80;25769;-70
2022/04/16 11:43:46;;;;;;;2.98;1.47;;;;;;;9.31;53.11;102375.30;1755811;80;98651;-68
2022/04/16 11:46:15;;;;;;;2.67;1.40;;;;;;;9.33;52.64;102374.83;1756713;81;25800;-70
2022/04/16 11:48:50;;;;;;;3.00;1.57;;;;;;;9.39;52.02;102374.31;1750342;80;27529;-70
2022/04/16 11:51:20;;;;;;;3.25;1.32;;;;;;;9.41;52.81;102368.50;1718420;82;98629;-70
2022/04/16 11:53:51;;;;;;;4.00;1.52;;;;;;;9.54;53.16;102380.41;1725299;82;25790;-70
2022/04/16 11:56:23;;;;;;;;;;;;;;;9.53;53.06;102369.27;1780384;79;98644;-70
2022/04/16 11:58:55;;;;;;;10.00;1.67;;;;;;;9.58;52.41;102370.09;1777565;79;25736;-70
2022/04/16 12:01:23;;;;;;;2.92;1.05;;;;;;;9.43;52.42;102364.46;1741626;81;98113;-71
2022/04/16 12:03:57;;;;;;;2.05;1.00;;;;;;;9.64;52.99;102373.59;1774497;80;25830;-71